Meteo Giornale » Osservazioni meteo Stati Uniti (USA) » Saranac Lake Adirondack
ore: 03:51 - Osservazioni Meteo Saranac Lake Adirondack
Lat. 44° 23' N Lon. 74° 12' W Alt. 507 metri s.l.m.
13 °C
Coperto
Temp. 24 Ore
12 °C
23 °C
Nord
0 Km/h
Dew point 13 °C
Umidità 100 %
Visibilità 10 Km
Il sole sorge alle ore 06:19
Il sole tramonta alle ore 19:33
| Data e Ora | Cielo e Fenomeni | T °C | DP °C | Um. % | Pres. hPa | Vis. km | Vento km/h | |
|---|---|---|---|---|---|---|---|---|
| Oggi h: 03:51 | Coperto | 13 | 13 | 100 | 1017 | 10 | N 0 | |
| Oggi h: 02:51 | Coperto | 13 | 13 | 100 | 1017 | 10 | N 0 | |
| Oggi h: 01:51 | Coperto | 14 | 12 | 87 | 1018 | 10 | N 5.5 | |
| Oggi h: 00:51 | Nuvoloso | 12 | 11 | 93 | 1018 | 10 | N 0 | |
| Ieri h: 23:51 | Poco Nuvoloso | 13 | 12 | 93 | 1018 | 10 | N 0 | |
| Ieri h: 22:51 | Nuvoloso | 14 | 13 | 93 | 1018 | 10 | N 5.5 | |
| Ieri h: 21:51 | Poco Nuvoloso | 16 | 13 | 82 | 1018 | 10 | N 0 | |
| Ieri h: 20:51 | Coperto | 17 | 16 | 93 | 1018 | 10 | N 0 | |
| Ieri h: 19:51 | Coperto | 18 | 16 | 88 | 1018 | 10 | N 0 | |
| Ieri h: 18:51 | Coperto | 19 | 15 | 77 | 1018 | 10 | O/SO 7.4 | |
| Ieri h: 17:51 | Coperto | 19 | 14 | 72 | 1018 | 10 | N 0 | |
| Ieri h: 16:51 | Molto Nuvoloso | 23 | 9 | 40 | 1018 | 10 | N 0 | |
| Ieri h: 15:51 | Sereno | 23 | 10 | 43 | 1019 | 10 | S/SO 7.4 | |
| Ieri h: 14:51 | Sereno | 23 | 8 | 38 | 1019 | 10 | N 7.4 | |
| Ieri h: 13:51 | Sereno | 22 | 9 | 43 | 1019 | 10 | N 0 | |
| Ieri h: 12:51 | Sereno | 22 | 13 | 56 | 1020 | 10 | SO 11.1 | |
| Ieri h: 11:51 | Sereno | 20 | 12 | 59 | 1021 | 10 | SO 9.3 | |
| Ieri h: 10:51 | Poco Nuvoloso | 19 | 14 | 72 | 1021 | 10 | S/SO 7.4 | |
| Ieri h: 09:51 | Poco Nuvoloso | 16 | 14 | 87 | 1021 | 10 | N 5.5 | |
| Ieri h: 09:47 | Nuvoloso | 16 | 14 | 87 | 1021 | 10 | N 0 | |
| Ieri h: 09:14 | Coperto | 16 | 15 | 93 | 1021 | 10 | SO 7.4 | |
| Ieri h: 08:51 | Coperto | 15 | 14 | 93 | 1021 | 11 | N 0 | |
| Ieri h: 08:44 | Foschia | 15 | 15 | 100 | 1021 | 5 | N 5.5 | |
| Ieri h: 08:35 | Foschia | 15 | 15 | 100 | 1021 | 2 | N 5.5 | |
| Ieri h: 08:23 | Nebbia | 15 | 15 | 100 | 1021 | 2 | N 0 | |
| Ieri h: 08:08 | Nebbia | 14 | 14 | 100 | 1021 | 0 | N 5.5 | |
| Ieri h: 07:51 | Nebbia | 14 | 14 | 100 | 1021 | 2 | N 0 | |
| Ieri h: 07:35 | Nebbia | 14 | 14 | 100 | 1021 | 2 | N 0 | |
| Ieri h: 07:26 | Nebbia | 14 | 14 | 100 | 1021 | 2 | N 5.5 | |
| Ieri h: 06:51 | Nebbia | 13 | 13 | 100 | 1021 | 2 | N 0 | |
| Ieri h: 06:46 | Nebbia | 13 | 13 | 100 | 1020 | 2 | N 0 | |
| Ieri h: 06:33 | Nebbia | 13 | 13 | 100 | 1020 | 0 | N 0 | |
| Ieri h: 06:18 | Nebbia | 13 | 13 | 100 | 1020 | 2 | N 0 | |
| Ieri h: 06:10 | Foschia | 12 | 12 | 100 | 1020 | 2 | N 0 | |
| Ieri h: 06:06 | Foschia | 12 | 12 | 100 | 1020 | 5 | N 0 | |
| Ieri h: 05:51 | Foschia | 13 | 13 | 100 | 1020 | 2 | N 0 | |
| Ieri h: 05:45 | Foschia | 13 | 13 | 100 | 1020 | 2 | N 0 | |
| Ieri h: 05:41 | Foschia | 13 | 13 | 100 | 1020 | 5 | N 0 | |
| Ieri h: 05:01 | Nebbia | 12 | 12 | 100 | 1020 | 2 | N 0 | |
| Ieri h: 04:51 | Nebbia | 13 | 13 | 100 | 1020 | 2 | N 0 | |
| Ieri h: 04:40 | Foschia | 13 | 13 | 100 | 1020 | 5 | N 0 | |



